CAO8441 ZBAA-ZYTX
Flight info
| Callsign | CAO8441 |
|---|---|
| Flight time | 1h 11m |
| Altitude | 29100 |
| Route | DOTRA2G DOTRA B334 KAKAT W31 CHG A575 OMDUS OMD71A |
| Aircraft | B77L/H-SDE1E2E3FGHIJ2J3J4J5M1RWXY/LB1D1 |
Departure
| Time | 2026-04-16 16:52 |
|---|---|
| Airport | Beijing Capital International Airport (ZBAA) |
Arrival
| Time | 2026-04-16 18:04 |
|---|---|
| Airport | Shenyang Taoxian International Airport (ZYTX) |
| Time | Latitude | Longitude | Altitude | Speed | Heading |
|---|---|---|---|---|---|
| 2026-04-16 16:41 | 40.09095 | 116.59935 | 123 ft | 0 kts | 263° |
| 2026-04-16 16:49 | 40.09089 | 116.59870 | 127 ft | 16 kts | 263° |
| 2026-04-16 16:49 | 40.09045 | 116.59811 | 126 ft | 11 kts | 173° |
| 2026-04-16 16:49 | 40.08973 | 116.59786 | 126 ft | 12 kts | 245° |
| 2026-04-16 16:50 | 40.08981 | 116.59679 | 129 ft | 0 kts | 264° |
| 2026-04-16 16:50 | 40.08980 | 116.59677 | 129 ft | 2 kts | 264° |
| 2026-04-16 16:50 | 40.08974 | 116.59593 | 128 ft | 13 kts | 264° |
| 2026-04-16 16:51 | 40.08920 | 116.59503 | 125 ft | 13 kts | 205° |
| 2026-04-16 16:51 | 40.08875 | 116.59497 | 126 ft | 0 kts | 173° |
| 2026-04-16 16:51 | 40.08604 | 116.59539 | 123 ft | 95 kts | 173° |
| 2026-04-16 16:52 | 40.07577 | 116.59700 | 239 ft | 191 kts | 173° |
| 2026-04-16 16:52 | 40.06277 | 116.59907 | 1566 ft | 188 kts | 174° |
| 2026-04-16 16:52 | 40.04967 | 116.60107 | 2597 ft | 193 kts | 175° |
| 2026-04-16 16:52 | 40.03596 | 116.60315 | 3356 ft | 202 kts | 174° |
| 2026-04-16 16:53 | 40.02178 | 116.60536 | 4185 ft | 208 kts | 174° |
| 2026-04-16 16:53 | 40.00723 | 116.60764 | 5004 ft | 213 kts | 174° |
| 2026-04-16 16:53 | 39.99224 | 116.61001 | 5731 ft | 224 kts | 175° |
| 2026-04-16 16:53 | 39.97598 | 116.61258 | 6289 ft | 243 kts | 175° |
| 2026-04-16 16:54 | 39.95885 | 116.61531 | 7042 ft | 253 kts | 175° |
| 2026-04-16 16:54 | 39.94119 | 116.61815 | 7891 ft | 259 kts | 175° |
| 2026-04-16 16:54 | 39.92311 | 116.62105 | 8719 ft | 267 kts | 175° |
| 2026-04-16 16:54 | 39.90394 | 116.62410 | 9251 ft | 291 kts | 175° |
| 2026-04-16 16:55 | 39.88265 | 116.62744 | 9529 ft | 324 kts | 175° |
| 2026-04-16 16:55 | 39.85971 | 116.63336 | 9710 ft | 350 kts | 161° |
| 2026-04-16 16:55 | 39.83838 | 116.65103 | 9946 ft | 382 kts | 132° |
| 2026-04-16 16:55 | 39.82486 | 116.68091 | 10619 ft | 391 kts | 104° |
| 2026-04-16 16:56 | 39.82245 | 116.71547 | 11561 ft | 389 kts | 78° |
| 2026-04-16 16:56 | 39.83110 | 116.74823 | 12482 ft | 381 kts | 55° |
| 2026-04-16 16:56 | 39.84498 | 116.77748 | 13094 ft | 383 kts | 53° |
| 2026-04-16 16:56 | 39.85648 | 116.80939 | 13556 ft | 402 kts | 72° |
| 2026-04-16 16:57 | 39.85983 | 116.84569 | 14508 ft | 404 kts | 83° |
| 2026-04-16 16:57 | 39.86450 | 116.91914 | 15391 ft | 410 kts | 75° |
| 2026-04-16 16:57 | 39.87083 | 116.95577 | 16122 ft | 417 kts | 73° |
| 2026-04-16 16:58 | 39.87777 | 116.99249 | 17070 ft | 418 kts | 73° |
| 2026-04-16 16:58 | 39.88619 | 117.02854 | 17614 ft | 417 kts | 64° |
| 2026-04-16 16:58 | 39.90226 | 117.05991 | 18029 ft | 421 kts | 41° |
| 2026-04-16 16:58 | 39.92595 | 117.08187 | 18805 ft | 418 kts | 22° |
| 2026-04-16 16:59 | 39.95337 | 117.09410 | 19598 ft | 416 kts | 8° |
| 2026-04-16 16:59 | 39.98210 | 117.09643 | 20258 ft | 412 kts | 351° |
| 2026-04-16 16:59 | 40.01017 | 117.09030 | 20587 ft | 412 kts | 345° |
| 2026-04-16 16:59 | 40.03844 | 117.08224 | 20741 ft | 417 kts | 344° |
| 2026-04-16 17:00 | 40.06708 | 117.07466 | 20935 ft | 422 kts | 347° |
| 2026-04-16 17:00 | 40.09622 | 117.06937 | 21222 ft | 424 kts | 350° |
| 2026-04-16 17:00 | 40.12561 | 117.06558 | 21514 ft | 426 kts | 351° |
| 2026-04-16 17:00 | 40.14522 | 117.06313 | 21721 ft | 430 kts | 351° |
| 2026-04-16 17:01 | 40.18521 | 117.05730 | 22719 ft | 434 kts | 349° |
| 2026-04-16 17:01 | 40.21527 | 117.05214 | 23500 ft | 437 kts | 348° |
| 2026-04-16 17:01 | 40.23524 | 117.04842 | 23907 ft | 440 kts | 348° |
| 2026-04-16 17:01 | 40.26567 | 117.04253 | 24499 ft | 444 kts | 347° |
| 2026-04-16 17:02 | 40.29636 | 117.03659 | 25100 ft | 448 kts | 348° |
| 2026-04-16 17:02 | 40.32734 | 117.03074 | 25708 ft | 451 kts | 348° |
| 2026-04-16 17:02 | 40.35833 | 117.02531 | 26138 ft | 448 kts | 349° |
| 2026-04-16 17:02 | 40.38947 | 117.02086 | 26178 ft | 453 kts | 350° |
| 2026-04-16 17:03 | 40.42100 | 117.01734 | 26206 ft | 457 kts | 352° |
| 2026-04-16 17:03 | 40.45285 | 117.01464 | 26266 ft | 459 kts | 352° |
| 2026-04-16 17:03 | 40.48473 | 117.01191 | 26374 ft | 460 kts | 352° |
| 2026-04-16 17:03 | 40.51672 | 117.00846 | 26589 ft | 463 kts | 349° |
| 2026-04-16 17:04 | 40.54860 | 117.00489 | 27031 ft | 459 kts | 354° |
| 2026-04-16 17:04 | 40.58086 | 117.00992 | 27180 ft | 480 kts | 12° |
| 2026-04-16 17:04 | 40.61192 | 117.02721 | 27734 ft | 490 kts | 25° |
| 2026-04-16 17:04 | 40.64093 | 117.05079 | 28297 ft | 487 kts | 30° |
| 2026-04-16 17:05 | 40.66899 | 117.07596 | 28335 ft | 490 kts | 31° |
| 2026-04-16 17:05 | 40.72623 | 117.12490 | 28382 ft | 491 kts | 26° |
| 2026-04-16 17:06 | 40.78686 | 117.16661 | 28416 ft | 493 kts | 22° |
| 2026-04-16 17:06 | 40.81772 | 117.18728 | 28703 ft | 500 kts | 23° |
| 2026-04-16 17:06 | 40.84856 | 117.20874 | 29168 ft | 504 kts | 24° |
| 2026-04-16 17:07 | 40.90991 | 117.25416 | 29119 ft | 505 kts | 26° |
| 2026-04-16 17:07 | 40.97043 | 117.30133 | 29098 ft | 504 kts | 27° |
| 2026-04-16 17:08 | 41.03065 | 117.34854 | 29099 ft | 504 kts | 27° |
| 2026-04-16 17:08 | 41.09127 | 117.39559 | 29100 ft | 506 kts | 26° |
| 2026-04-16 17:09 | 41.15220 | 117.44260 | 29098 ft | 507 kts | 26° |
| 2026-04-16 17:09 | 41.21324 | 117.48977 | 29104 ft | 509 kts | 27° |
| 2026-04-16 17:10 | 41.27449 | 117.53721 | 29100 ft | 510 kts | 27° |
| 2026-04-16 17:10 | 41.33582 | 117.58488 | 29097 ft | 511 kts | 27° |
| 2026-04-16 17:11 | 41.39688 | 117.63250 | 29085 ft | 512 kts | 27° |
| 2026-04-16 17:11 | 41.45877 | 117.68090 | 29086 ft | 513 kts | 27° |
| 2026-04-16 17:12 | 41.52025 | 117.72907 | 29103 ft | 513 kts | 27° |
| 2026-04-16 17:12 | 41.58180 | 117.77736 | 29099 ft | 513 kts | 27° |
| 2026-04-16 17:13 | 41.64344 | 117.82583 | 29078 ft | 514 kts | 27° |
| 2026-04-16 17:13 | 41.70505 | 117.87440 | 29093 ft | 514 kts | 27° |
| 2026-04-16 17:14 | 41.76617 | 117.92270 | 29081 ft | 514 kts | 27° |
| 2026-04-16 17:14 | 41.82776 | 117.97148 | 29082 ft | 513 kts | 27° |
| 2026-04-16 17:15 | 41.88786 | 118.01916 | 29079 ft | 515 kts | 27° |
| 2026-04-16 17:15 | 41.94960 | 118.06826 | 29064 ft | 516 kts | 27° |
| 2026-04-16 17:16 | 42.01132 | 118.11750 | 29083 ft | 517 kts | 27° |
| 2026-04-16 17:16 | 42.07324 | 118.16699 | 29040 ft | 519 kts | 27° |
| 2026-04-16 17:17 | 42.13497 | 118.21711 | 29032 ft | 513 kts | 30° |
| 2026-04-16 17:17 | 42.18817 | 118.28093 | 29059 ft | 529 kts | 57° |
| 2026-04-16 17:17 | 42.20323 | 118.32649 | 29035 ft | 536 kts | 76° |
| 2026-04-16 17:18 | 42.20714 | 118.37597 | 29056 ft | 528 kts | 96° |
| 2026-04-16 17:18 | 42.20118 | 118.42396 | 29070 ft | 512 kts | 107° |
| 2026-04-16 17:18 | 42.19239 | 118.47044 | 29035 ft | 512 kts | 108° |
| 2026-04-16 17:19 | 42.18512 | 118.56682 | 29070 ft | 533 kts | 84° |
| 2026-04-16 17:19 | 42.19713 | 118.66457 | 29036 ft | 524 kts | 82° |
| 2026-04-16 17:19 | 42.20014 | 118.71339 | 29042 ft | 525 kts | 94° |
| 2026-04-16 17:20 | 42.19505 | 118.76196 | 29040 ft | 525 kts | 108° |
| 2026-04-16 17:20 | 42.17041 | 118.85311 | 29033 ft | 511 kts | 116° |
| 2026-04-16 17:21 | 42.14065 | 118.94083 | 29050 ft | 511 kts | 122° |
| 2026-04-16 17:21 | 42.10720 | 119.02290 | 29047 ft | 510 kts | 124° |
| 2026-04-16 17:22 | 42.07218 | 119.10589 | 29050 ft | 509 kts | 124° |
| 2026-04-16 17:22 | 42.03811 | 119.18923 | 29051 ft | 506 kts | 124° |
| 2026-04-16 17:23 | 42.00496 | 119.27215 | 29038 ft | 501 kts | 124° |
| 2026-04-16 17:23 | 41.97185 | 119.35418 | 29043 ft | 497 kts | 124° |
| 2026-04-16 17:24 | 41.93871 | 119.43557 | 29031 ft | 497 kts | 124° |
| 2026-04-16 17:24 | 41.90626 | 119.51664 | 29042 ft | 496 kts | 124° |
| 2026-04-16 17:25 | 41.87396 | 119.59832 | 29043 ft | 495 kts | 124° |
| 2026-04-16 17:25 | 41.84157 | 119.67998 | 29050 ft | 496 kts | 124° |
| 2026-04-16 17:26 | 41.80904 | 119.76134 | 29047 ft | 494 kts | 124° |
| 2026-04-16 17:26 | 41.77650 | 119.84239 | 29048 ft | 493 kts | 124° |
| 2026-04-16 17:27 | 41.74401 | 119.92323 | 29050 ft | 493 kts | 124° |
| 2026-04-16 17:27 | 41.71209 | 120.00238 | 29043 ft | 493 kts | 123° |
| 2026-04-16 17:28 | 41.67956 | 120.08281 | 29071 ft | 493 kts | 123° |
| 2026-04-16 17:28 | 41.64686 | 120.16353 | 29054 ft | 494 kts | 123° |
| 2026-04-16 17:29 | 41.61408 | 120.24418 | 29046 ft | 494 kts | 123° |
| 2026-04-16 17:29 | 41.58125 | 120.32478 | 29065 ft | 494 kts | 123° |
| 2026-04-16 17:30 | 41.54962 | 120.40566 | 29054 ft | 489 kts | 119° |
| 2026-04-16 17:30 | 41.53844 | 120.44831 | 29048 ft | 504 kts | 105° |
| 2026-04-16 17:30 | 41.53635 | 120.49582 | 29078 ft | 523 kts | 88° |
| 2026-04-16 17:31 | 41.54966 | 120.59050 | 29063 ft | 514 kts | 82° |
| 2026-04-16 17:31 | 41.55643 | 120.68496 | 29075 ft | 510 kts | 93° |
| 2026-04-16 17:31 | 41.55625 | 120.73276 | 29100 ft | 521 kts | 94° |
| 2026-04-16 17:32 | 41.55611 | 120.78125 | 29071 ft | 521 kts | 93° |
| 2026-04-16 17:32 | 41.55866 | 120.87735 | 29066 ft | 516 kts | 90° |
| 2026-04-16 17:33 | 41.56410 | 120.97309 | 29055 ft | 518 kts | 88° |
| 2026-04-16 17:33 | 41.56956 | 121.06702 | 29079 ft | 519 kts | 89° |
| 2026-04-16 17:34 | 41.57417 | 121.16340 | 29081 ft | 521 kts | 90° |
| 2026-04-16 17:34 | 41.57797 | 121.25996 | 29080 ft | 520 kts | 91° |
| 2026-04-16 17:34 | 41.57934 | 121.30797 | 28820 ft | 513 kts | 91° |
| 2026-04-16 17:35 | 41.58053 | 121.35520 | 28180 ft | 506 kts | 91° |
| 2026-04-16 17:35 | 41.58162 | 121.40183 | 27569 ft | 499 kts | 91° |
| 2026-04-16 17:35 | 41.58224 | 121.44769 | 26934 ft | 490 kts | 93° |
| 2026-04-16 17:35 | 41.58197 | 121.49274 | 26160 ft | 478 kts | 94° |
| 2026-04-16 17:36 | 41.58089 | 121.53668 | 25140 ft | 470 kts | 95° |
| 2026-04-16 17:36 | 41.57905 | 121.58010 | 24045 ft | 466 kts | 96° |
| 2026-04-16 17:36 | 41.57649 | 121.62301 | 22875 ft | 461 kts | 97° |
| 2026-04-16 17:36 | 41.57369 | 121.66533 | 21944 ft | 452 kts | 97° |
| 2026-04-16 17:37 | 41.57103 | 121.70729 | 21651 ft | 457 kts | 96° |
| 2026-04-16 17:37 | 41.56860 | 121.74983 | 21545 ft | 458 kts | 96° |
| 2026-04-16 17:37 | 41.56649 | 121.79204 | 21508 ft | 454 kts | 95° |
| 2026-04-16 17:37 | 41.56462 | 121.83398 | 21437 ft | 451 kts | 95° |
| 2026-04-16 17:38 | 41.56289 | 121.87568 | 21378 ft | 450 kts | 95° |
| 2026-04-16 17:38 | 41.56120 | 121.91744 | 21327 ft | 451 kts | 95° |
| 2026-04-16 17:38 | 41.55949 | 121.95930 | 21299 ft | 451 kts | 95° |
| 2026-04-16 17:38 | 41.55777 | 122.00076 | 21297 ft | 451 kts | 95° |
| 2026-04-16 17:39 | 41.55605 | 122.04101 | 21291 ft | 450 kts | 95° |
| 2026-04-16 17:39 | 41.55425 | 122.08222 | 21293 ft | 450 kts | 95° |
| 2026-04-16 17:39 | 41.55237 | 122.12446 | 21299 ft | 450 kts | 95° |
| 2026-04-16 17:39 | 41.55052 | 122.16559 | 21294 ft | 450 kts | 95° |
| 2026-04-16 17:40 | 41.54861 | 122.20775 | 21297 ft | 450 kts | 95° |
| 2026-04-16 17:40 | 41.54670 | 122.24945 | 21298 ft | 450 kts | 95° |
| 2026-04-16 17:40 | 41.54477 | 122.29109 | 21300 ft | 450 kts | 95° |
| 2026-04-16 17:40 | 41.54286 | 122.33224 | 21297 ft | 450 kts | 95° |
| 2026-04-16 17:41 | 41.54091 | 122.37388 | 21300 ft | 450 kts | 95° |
| 2026-04-16 17:41 | 41.53894 | 122.41562 | 21301 ft | 450 kts | 95° |
| 2026-04-16 17:41 | 41.53742 | 122.44782 | 21298 ft | 450 kts | 95° |
| 2026-04-16 17:41 | 41.53543 | 122.48948 | 21295 ft | 447 kts | 95° |
| 2026-04-16 17:42 | 41.53347 | 122.53049 | 21283 ft | 443 kts | 96° |
| 2026-04-16 17:42 | 41.53147 | 122.57179 | 21300 ft | 449 kts | 96° |
| 2026-04-16 17:42 | 41.52942 | 122.61350 | 21308 ft | 451 kts | 96° |
| 2026-04-16 17:42 | 41.52736 | 122.65521 | 21303 ft | 450 kts | 96° |
| 2026-04-16 17:43 | 41.52529 | 122.69690 | 21302 ft | 452 kts | 96° |
| 2026-04-16 17:43 | 41.52320 | 122.73887 | 21300 ft | 453 kts | 96° |
| 2026-04-16 17:43 | 41.52111 | 122.78069 | 21299 ft | 450 kts | 96° |
| 2026-04-16 17:43 | 41.51888 | 122.82215 | 21262 ft | 446 kts | 97° |
| 2026-04-16 17:44 | 41.51566 | 122.86294 | 20798 ft | 438 kts | 99° |
| 2026-04-16 17:44 | 41.51089 | 122.90270 | 19994 ft | 431 kts | 103° |
| 2026-04-16 17:44 | 41.50521 | 122.94189 | 19096 ft | 429 kts | 103° |
| 2026-04-16 17:44 | 41.49957 | 122.98125 | 18361 ft | 435 kts | 102° |
| 2026-04-16 17:45 | 41.49466 | 123.01921 | 17977 ft | 432 kts | 100° |
| 2026-04-16 17:45 | 41.49003 | 123.05841 | 17634 ft | 420 kts | 100° |
| 2026-04-16 17:45 | 41.48568 | 123.09647 | 17089 ft | 415 kts | 100° |
| 2026-04-16 17:45 | 41.48124 | 123.13485 | 16942 ft | 420 kts | 100° |
| 2026-04-16 17:46 | 41.47665 | 123.17332 | 16782 ft | 419 kts | 101° |
| 2026-04-16 17:46 | 41.47212 | 123.21152 | 16501 ft | 415 kts | 99° |
| 2026-04-16 17:46 | 41.46962 | 123.24944 | 15943 ft | 409 kts | 94° |
| 2026-04-16 17:46 | 41.47264 | 123.28730 | 15225 ft | 419 kts | 72° |
| 2026-04-16 17:47 | 41.48626 | 123.32145 | 15063 ft | 417 kts | 56° |
| 2026-04-16 17:47 | 41.49695 | 123.34241 | 14996 ft | 407 kts | 56° |
| 2026-04-16 17:47 | 41.51073 | 123.37440 | 14605 ft | 394 kts | 71° |
| 2026-04-16 17:47 | 41.51616 | 123.42081 | 14340 ft | 362 kts | 100° |
| 2026-04-16 17:48 | 41.51363 | 123.44211 | 14271 ft | 344 kts | 105° |
| 2026-04-16 17:48 | 41.51099 | 123.48295 | 14047 ft | 326 kts | 80° |
| 2026-04-16 17:48 | 41.51611 | 123.50148 | 13960 ft | 319 kts | 57° |
| 2026-04-16 17:48 | 41.53095 | 123.52203 | 13843 ft | 299 kts | 34° |
| 2026-04-16 17:49 | 41.54707 | 123.53878 | 13518 ft | 290 kts | 39° |
| 2026-04-16 17:49 | 41.56070 | 123.55842 | 12998 ft | 289 kts | 51° |
| 2026-04-16 17:49 | 41.57330 | 123.57921 | 12463 ft | 287 kts | 45° |
| 2026-04-16 17:49 | 41.59248 | 123.60348 | 11909 ft | 286 kts | 40° |
| 2026-04-16 17:50 | 41.60234 | 123.61548 | 11732 ft | 282 kts | 41° |
| 2026-04-16 17:50 | 41.61646 | 123.63352 | 11434 ft | 279 kts | 43° |
| 2026-04-16 17:50 | 41.63002 | 123.65158 | 11215 ft | 271 kts | 44° |
| 2026-04-16 17:50 | 41.64307 | 123.66935 | 10959 ft | 266 kts | 46° |
| 2026-04-16 17:51 | 41.65543 | 123.68750 | 10609 ft | 263 kts | 49° |
| 2026-04-16 17:51 | 41.66742 | 123.70583 | 10318 ft | 259 kts | 49° |
| 2026-04-16 17:51 | 41.67897 | 123.72348 | 10077 ft | 251 kts | 49° |
| 2026-04-16 17:51 | 41.69030 | 123.74088 | 9770 ft | 246 kts | 49° |
| 2026-04-16 17:52 | 41.70164 | 123.75834 | 9366 ft | 244 kts | 49° |
| 2026-04-16 17:52 | 41.71247 | 123.77499 | 9115 ft | 236 kts | 49° |
| 2026-04-16 17:52 | 41.72315 | 123.79135 | 8790 ft | 232 kts | 50° |
| 2026-04-16 17:52 | 41.73371 | 123.80751 | 8417 ft | 230 kts | 50° |
| 2026-04-16 17:53 | 41.74423 | 123.82355 | 8039 ft | 229 kts | 50° |
| 2026-04-16 17:53 | 41.75456 | 123.83933 | 7761 ft | 221 kts | 50° |
| 2026-04-16 17:53 | 41.76459 | 123.85438 | 7485 ft | 213 kts | 45° |
| 2026-04-16 17:53 | 41.77680 | 123.86452 | 7076 ft | 205 kts | 7° |
| 2026-04-16 17:54 | 41.78995 | 123.86142 | 6539 ft | 190 kts | 315° |
| 2026-04-16 17:54 | 41.79673 | 123.84786 | 6087 ft | 169 kts | 278° |
| 2026-04-16 17:54 | 41.80040 | 123.83318 | 5716 ft | 168 kts | 284° |
| 2026-04-16 17:54 | 41.80418 | 123.81868 | 5296 ft | 160 kts | 269° |
| 2026-04-16 17:55 | 41.80269 | 123.80459 | 4859 ft | 149 kts | 248° |
| 2026-04-16 17:55 | 41.80045 | 123.79131 | 4534 ft | 144 kts | 255° |
| 2026-04-16 17:55 | 41.79917 | 123.77843 | 4230 ft | 135 kts | 257° |
| 2026-04-16 17:55 | 41.79805 | 123.76634 | 3806 ft | 128 kts | 257° |
| 2026-04-16 17:56 | 41.79699 | 123.75458 | 3265 ft | 127 kts | 258° |
| 2026-04-16 17:56 | 41.79595 | 123.74287 | 2775 ft | 127 kts | 259° |
| 2026-04-16 17:56 | 41.79384 | 123.71998 | 1985 ft | 119 kts | 255° |
| 2026-04-16 17:57 | 41.78987 | 123.71032 | 1912 ft | 120 kts | 225° |
| 2026-04-16 17:57 | 41.78389 | 123.70245 | 1904 ft | 121 kts | 231° |
| 2026-04-16 17:57 | 41.77844 | 123.69390 | 1904 ft | 121 kts | 231° |
| 2026-04-16 17:57 | 41.77296 | 123.68541 | 1902 ft | 120 kts | 230° |
| 2026-04-16 17:58 | 41.76746 | 123.67695 | 1888 ft | 120 kts | 230° |
| 2026-04-16 17:58 | 41.76197 | 123.66859 | 1882 ft | 119 kts | 230° |
| 2026-04-16 17:58 | 41.75657 | 123.66035 | 1888 ft | 117 kts | 230° |
| 2026-04-16 17:58 | 41.75118 | 123.65213 | 1883 ft | 118 kts | 230° |
| 2026-04-16 17:59 | 41.74586 | 123.64405 | 1897 ft | 118 kts | 230° |
| 2026-04-16 17:59 | 41.74043 | 123.63580 | 1899 ft | 117 kts | 231° |
| 2026-04-16 17:59 | 41.73501 | 123.62757 | 1891 ft | 118 kts | 231° |
| 2026-04-16 17:59 | 41.72961 | 123.61936 | 1895 ft | 117 kts | 231° |
| 2026-04-16 18:00 | 41.72426 | 123.61121 | 1891 ft | 116 kts | 231° |
| 2026-04-16 18:00 | 41.71891 | 123.60306 | 1893 ft | 117 kts | 230° |
| 2026-04-16 18:00 | 41.71346 | 123.59481 | 1899 ft | 119 kts | 230° |
| 2026-04-16 18:00 | 41.70805 | 123.58661 | 1907 ft | 119 kts | 230° |
| 2026-04-16 18:01 | 41.70247 | 123.57811 | 1818 ft | 124 kts | 230° |
| 2026-04-16 18:01 | 41.69686 | 123.56962 | 1665 ft | 119 kts | 230° |
| 2026-04-16 18:01 | 41.69136 | 123.56126 | 1488 ft | 120 kts | 230° |
| 2026-04-16 18:01 | 41.68574 | 123.55273 | 1328 ft | 124 kts | 230° |
| 2026-04-16 18:02 | 41.67999 | 123.54399 | 1128 ft | 127 kts | 230° |
| 2026-04-16 18:02 | 41.67421 | 123.53521 | 979 ft | 126 kts | 228° |
| 2026-04-16 18:02 | 41.66825 | 123.52621 | 791 ft | 132 kts | 226° |
| 2026-04-16 18:02 | 41.66207 | 123.51678 | 632 ft | 137 kts | 228° |
| 2026-04-16 18:03 | 41.65578 | 123.50725 | 413 ft | 135 kts | 228° |
| 2026-04-16 18:03 | 41.64957 | 123.49785 | 256 ft | 136 kts | 229° |
| 2026-04-16 18:03 | 41.64352 | 123.48873 | 210 ft | 122 kts | 228° |
| 2026-04-16 18:03 | 41.63959 | 123.48276 | 203 ft | 61 kts | 229° |
| 2026-04-16 18:04 | 41.63759 | 123.48009 | 196 ft | 22 kts | 214° |
| 2026-04-16 18:04 | 41.63633 | 123.47922 | 194 ft | 20 kts | 198° |
| 2026-04-16 18:04 | 41.63543 | 123.47892 | 194 ft | 13 kts | 176° |
| 2026-04-16 18:04 | 41.63520 | 123.47987 | 199 ft | 11 kts | 57° |
| 2026-04-16 18:05 | 41.63570 | 123.48065 | 197 ft | 11 kts | 49° |
| 2026-04-16 18:05 | 41.63625 | 123.48137 | 200 ft | 11 kts | 45° |
| 2026-04-16 18:05 | 41.63679 | 123.48215 | 200 ft | 11 kts | 49° |
| 2026-04-16 18:05 | 41.63717 | 123.48304 | 203 ft | 11 kts | 88° |
| 2026-04-16 18:06 | 41.63658 | 123.48338 | 195 ft | 12 kts | 210° |
| 2026-04-16 18:06 | 41.63584 | 123.48304 | 199 ft | 12 kts | 162° |
| 2026-04-16 18:06 | 41.63523 | 123.48380 | 199 ft | 12 kts | 129° |
| 2026-04-16 18:06 | 41.63476 | 123.48449 | 196 ft | 0 kts | 142° |
| 2026-04-16 18:07 | 41.63473 | 123.48452 | 201 ft | 2 kts | 143° |
| 2026-04-16 18:07 | 41.63436 | 123.48486 | 198 ft | 0 kts | 143° |
| 2026-04-16 18:07 | 41.63434 | 123.48488 | 204 ft | 1 kts | 144° |
| 2026-04-16 18:08 | 41.63431 | 123.48491 | 204 ft | 0 kts | 144° |